createdAt,value
2023-04-02T00:02:26.359Z,8.33
2023-04-02T00:05:30.496Z,8.36
2023-04-02T00:07:58.982Z,8.41
2023-04-02T00:10:32.887Z,8.43
2023-04-02T00:13:01.966Z,8.46
2023-04-02T00:15:29.043Z,8.41
2023-04-02T00:17:56.482Z,8.39
2023-04-02T00:20:24.505Z,8.35
2023-04-02T00:22:51.597Z,8.32
2023-04-02T00:25:19.386Z,8.28
2023-04-02T00:27:48.129Z,8.31
2023-04-02T00:30:15.723Z,8.35
2023-04-02T00:32:44.031Z,8.31
2023-04-02T00:35:12.604Z,8.38
2023-04-02T00:37:42.097Z,8.35
2023-04-02T00:40:17.371Z,8.37
2023-04-02T00:42:44.906Z,8.35
2023-04-02T00:45:19.782Z,8.40
2023-04-02T00:47:46.744Z,8.39
2023-04-02T00:50:22.304Z,8.37
2023-04-02T00:52:51.125Z,8.35
2023-04-02T00:55:22.918Z,8.21
2023-04-02T00:57:50.415Z,8.22
2023-04-02T01:00:23.109Z,8.25
2023-04-02T01:03:29.331Z,8.22
2023-04-02T01:06:01.711Z,8.28
2023-04-02T01:08:38.140Z,8.31
2023-04-02T01:11:14.953Z,8.25
2023-04-02T01:13:45.818Z,8.35
2023-04-02T01:16:20.040Z,8.34
2023-04-02T01:18:53.321Z,8.42
2023-04-02T01:21:42.606Z,8.39
2023-04-02T01:24:11.561Z,8.33
2023-04-02T01:26:56.427Z,8.41
2023-04-02T01:29:26.309Z,8.40
2023-04-02T01:31:55.641Z,8.44
2023-04-02T01:34:25.992Z,8.46
2023-04-02T01:37:07.144Z,8.47
2023-04-02T01:39:43.846Z,8.46
2023-04-02T01:42:16.100Z,8.44
2023-04-02T01:44:47.630Z,8.47
2023-04-02T01:47:17.173Z,8.55
2023-04-02T01:49:44.913Z,8.51
2023-04-02T01:52:14.796Z,8.53
2023-04-02T01:54:42.383Z,8.54
2023-04-02T01:57:09.654Z,8.53
2023-04-02T01:59:36.767Z,8.54
2023-04-02T02:02:09.736Z,8.57
2023-04-02T02:04:39.791Z,8.52
2023-04-02T02:07:14.483Z,8.51
2023-04-02T02:09:43.906Z,8.49
2023-04-02T02:12:13.803Z,8.49
2023-04-02T02:14:46.265Z,8.53
2023-04-02T02:17:16.011Z,8.58
2023-04-02T02:19:45.008Z,8.58
2023-04-02T02:22:17.493Z,8.59
2023-04-02T02:24:44.614Z,8.56
2023-04-02T02:27:41.814Z,8.54
2023-04-02T02:30:14.643Z,8.52
2023-04-02T02:32:48.303Z,8.45
2023-04-02T02:35:19.553Z,8.45
2023-04-02T02:37:52.420Z,8.47
2023-04-02T02:40:24.576Z,8.44
2023-04-02T02:42:53.480Z,8.46
2023-04-02T02:45:24.969Z,8.44
2023-04-02T02:47:54.756Z,8.46
2023-04-02T02:50:23.726Z,8.48
2023-04-02T02:52:54.452Z,8.47
2023-04-02T02:55:23.258Z,8.44
2023-04-02T02:58:00.182Z,8.43
2023-04-02T03:00:32.058Z,8.45
2023-04-02T03:03:05.020Z,8.48
2023-04-02T03:05:32.636Z,8.54
2023-04-02T03:08:09.553Z,8.52
2023-04-02T03:10:41.366Z,8.57
2023-04-02T03:13:19.908Z,8.54
2023-04-02T03:15:51.980Z,8.51
2023-04-02T03:18:27.222Z,8.53
2023-04-02T03:20:57.441Z,8.51
2023-04-02T03:23:28.701Z,8.53
2023-04-02T03:25:59.973Z,8.53
2023-04-02T03:28:30.139Z,8.45
2023-04-02T03:31:00.564Z,8.46
2023-04-02T03:33:32.903Z,8.53
2023-04-02T03:36:03.685Z,8.54
2023-04-02T03:38:33.094Z,8.39
2023-04-02T03:41:04.584Z,8.16
2023-04-02T03:43:36.990Z,8.16
2023-04-02T03:46:15.037Z,8.18
2023-04-02T03:48:46.113Z,8.18
2023-04-02T03:51:18.675Z,8.21
2023-04-02T03:53:46.748Z,8.17
2023-04-02T03:56:22.936Z,8.25
2023-04-02T03:58:55.214Z,8.22
2023-04-02T04:01:27.456Z,8.13
2023-04-02T04:04:01.564Z,8.09
2023-04-02T04:06:31.205Z,8.11
2023-04-02T04:09:01.381Z,8.12
2023-04-02T04:11:31.915Z,8.06
2023-04-02T04:14:01.888Z,8.07
2023-04-02T04:16:32.827Z,8.14
2023-04-02T04:19:04.105Z,8.17
2023-04-02T04:21:39.761Z,8.14
2023-04-02T04:24:20.433Z,8.19
2023-04-02T04:26:53.510Z,8.22
2023-04-02T04:29:32.578Z,8.19
2023-04-02T04:32:13.163Z,8.25
2023-04-02T04:34:47.052Z,8.28
2023-04-02T04:37:25.218Z,8.22
2023-04-02T04:39:57.329Z,8.03
2023-04-02T04:42:26.666Z,7.75
2023-04-02T04:44:59.938Z,7.58
2023-04-02T04:47:31.148Z,7.37
2023-04-02T04:50:04.585Z,7.35
2023-04-02T04:52:37.633Z,7.34
2023-04-02T04:55:40.449Z,7.27
2023-04-02T04:58:15.911Z,7.25
2023-04-02T05:00:51.570Z,7.09
2023-04-02T05:03:28.438Z,6.93
2023-04-02T05:06:01.068Z,6.70
2023-04-02T05:08:33.819Z,6.69
2023-04-02T05:11:02.334Z,6.68
2023-04-02T05:13:33.048Z,6.64
2023-04-02T05:16:07.896Z,6.58
2023-04-02T05:18:39.243Z,6.46
2023-04-02T05:21:18.395Z,6.61
2023-04-02T05:23:48.359Z,6.69
2023-04-02T05:26:18.264Z,6.68
2023-04-02T05:28:48.991Z,6.63
2023-04-02T05:31:20.085Z,6.65
2023-04-02T05:33:49.363Z,6.79
2023-04-02T05:36:21.749Z,7.00
2023-04-02T05:38:52.744Z,7.15
2023-04-02T05:41:27.701Z,7.23
2023-04-02T05:44:02.588Z,7.31
2023-04-02T05:46:34.032Z,7.36
2023-04-02T05:49:04.795Z,7.39
2023-04-02T05:51:39.785Z,7.54
2023-04-02T05:54:16.837Z,7.65
2023-04-02T05:56:46.628Z,7.70
2023-04-02T05:59:17.265Z,7.88
2023-04-02T06:01:47.428Z,8.04
2023-04-02T06:04:23.022Z,8.20
2023-04-02T06:06:57.492Z,8.32
2023-04-02T06:09:31.237Z,8.38
2023-04-02T06:12:04.988Z,8.44
2023-04-02T06:14:33.061Z,8.60
2023-04-02T06:17:00.534Z,8.67
2023-04-02T06:19:32.295Z,8.86
2023-04-02T06:22:09.604Z,9.01
2023-04-02T06:24:37.739Z,9.08
2023-04-02T06:27:06.576Z,9.23
2023-04-02T06:29:39.735Z,9.32
2023-04-02T06:32:11.557Z,9.38
2023-04-02T06:34:42.553Z,9.50
2023-04-02T06:37:20.289Z,9.60
2023-04-02T06:39:48.677Z,9.75
2023-04-02T06:42:20.547Z,9.87
2023-04-02T06:45:00.107Z,9.91
2023-04-02T06:47:50.589Z,10.09
2023-04-02T06:50:46.251Z,10.26
2023-04-02T06:53:20.854Z,10.42
2023-04-02T06:55:51.173Z,10.59
2023-04-02T06:58:23.038Z,10.67
2023-04-02T07:00:51.816Z,10.79
2023-04-02T07:03:31.039Z,10.96
2023-04-02T07:06:03.433Z,11.05
2023-04-02T07:08:33.291Z,11.18
2023-04-02T07:11:00.813Z,11.34
2023-04-02T07:13:28.682Z,11.43
2023-04-02T07:15:56.697Z,11.45
2023-04-02T07:18:27.319Z,11.59
2023-04-02T07:20:55.114Z,11.69
2023-04-02T07:23:23.252Z,11.88
2023-04-02T07:25:54.662Z,11.88
2023-04-02T07:28:22.916Z,11.93
2023-04-02T07:30:50.822Z,12.07
2023-04-02T07:33:19.362Z,12.28
2023-04-02T07:35:46.593Z,12.41
2023-04-02T07:38:13.615Z,12.57
2023-04-02T07:40:40.595Z,12.79
2023-04-02T07:43:09.326Z,12.92
2023-04-02T07:45:36.689Z,13.04
2023-04-02T07:48:05.832Z,13.15
2023-04-02T07:50:33.232Z,13.31
2023-04-02T07:53:00.355Z,13.40
2023-04-02T07:55:27.303Z,13.45
2023-04-02T07:57:55.791Z,13.58
2023-04-02T08:00:24.943Z,13.73
2023-04-02T08:02:52.258Z,13.88
2023-04-02T08:05:19.713Z,14.09
2023-04-02T08:07:52.990Z,14.23
2023-04-02T08:10:19.982Z,14.50
2023-04-02T08:12:47.026Z,14.59
2023-04-02T08:15:15.723Z,14.65
2023-04-02T08:17:44.404Z,14.89
2023-04-02T08:20:15.416Z,14.89
2023-04-02T08:22:42.470Z,14.91
2023-04-02T08:25:10.038Z,15.03
2023-04-02T08:27:37.250Z,15.20
2023-04-02T08:30:06.446Z,15.45
2023-04-02T08:32:33.740Z,15.77
2023-04-02T08:35:02.803Z,15.95
2023-04-02T08:37:29.825Z,16.07
2023-04-02T08:39:56.894Z,16.39
2023-04-02T08:42:30.552Z,16.55
2023-04-02T08:45:21.212Z,16.79
2023-04-02T08:47:53.495Z,17.00
2023-04-02T08:50:29.148Z,16.98
2023-04-02T08:52:57.215Z,16.96
2023-04-02T08:55:29.907Z,17.02
2023-04-02T08:58:04.009Z,17.31
2023-04-02T09:00:37.449Z,16.89
2023-04-02T09:03:09.071Z,16.28
2023-04-02T09:05:39.962Z,16.23
2023-04-02T09:08:16.831Z,16.67
2023-04-02T09:10:49.312Z,17.04
2023-04-02T09:13:19.870Z,17.48
2023-04-02T09:15:47.400Z,17.71
2023-04-02T09:18:16.687Z,17.74
2023-04-02T09:20:45.686Z,17.26
2023-04-02T09:23:17.637Z,16.92
2023-04-02T09:25:57.425Z,17.10
2023-04-02T09:28:30.542Z,17.57
2023-04-02T09:31:02.162Z,17.69
2023-04-02T09:33:43.002Z,18.07
2023-04-02T09:36:26.934Z,18.33
2023-04-02T09:38:59.242Z,18.00
2023-04-02T09:41:29.212Z,18.34
2023-04-02T09:44:21.281Z,18.93
2023-04-02T09:46:59.862Z,18.98
2023-04-02T09:49:29.316Z,18.96
2023-04-02T09:52:19.391Z,18.76
2023-04-02T09:54:47.080Z,18.53
2023-04-02T09:57:24.888Z,18.25
2023-04-02T10:00:25.227Z,18.02
2023-04-02T10:03:04.272Z,17.47
2023-04-02T10:05:40.544Z,17.42
2023-04-02T10:08:19.041Z,17.29
2023-04-02T10:10:48.719Z,17.04
2023-04-02T10:13:19.967Z,16.95
2023-04-02T10:15:49.138Z,17.20
2023-04-02T10:18:21.401Z,17.44
2023-04-02T10:20:51.680Z,17.53
2023-04-02T10:23:20.294Z,17.68
2023-04-02T10:25:52.024Z,17.92
2023-04-02T10:28:25.948Z,18.05
2023-04-02T10:30:57.355Z,18.08
2023-04-02T10:33:28.817Z,17.89
2023-04-02T10:36:01.898Z,18.19
2023-04-02T10:38:38.869Z,18.39
2023-04-02T10:41:16.326Z,18.61
2023-04-02T10:44:21.958Z,18.25
2023-04-02T10:47:06.590Z,18.31
2023-04-02T10:49:42.032Z,18.61
2023-04-02T10:52:13.660Z,18.81
2023-04-02T10:54:47.022Z,19.28
2023-04-02T10:57:26.691Z,19.83
2023-04-02T10:59:57.604Z,20.00
2023-04-02T11:02:31.989Z,20.09
2023-04-02T11:05:04.006Z,20.15
2023-04-02T11:07:43.714Z,19.83
2023-04-02T11:10:15.606Z,19.57
2023-04-02T11:12:49.939Z,19.36
2023-04-02T11:15:17.022Z,19.33
2023-04-02T11:17:44.450Z,19.40
2023-04-02T11:20:57.420Z,19.42
2023-04-02T11:23:28.746Z,19.74
2023-04-02T11:26:33.100Z,19.97
2023-04-02T11:29:13.604Z,20.03
2023-04-02T11:31:40.809Z,20.13
2023-04-02T11:34:12.939Z,20.15
2023-04-02T11:37:00.528Z,20.09
2023-04-02T11:39:54.093Z,20.25
2023-04-02T11:42:30.497Z,20.31
2023-04-02T11:45:00.416Z,20.09
2023-04-02T11:47:28.001Z,19.79
2023-04-02T11:50:03.487Z,19.59
2023-04-02T11:52:36.876Z,19.32
2023-04-02T11:55:24.440Z,19.14
2023-04-02T11:58:01.822Z,19.33
2023-04-02T12:00:40.132Z,19.53
2023-04-02T12:03:45.493Z,19.68
2023-04-02T12:06:20.651Z,19.71
2023-04-02T12:08:58.054Z,19.86
2023-04-02T12:11:33.531Z,19.87
2023-04-02T12:14:02.911Z,19.65
2023-04-02T12:16:33.709Z,19.32
2023-04-02T12:19:01.602Z,19.23
2023-04-02T12:21:30.607Z,19.31
2023-04-02T12:23:59.136Z,19.66
2023-04-02T12:26:32.463Z,19.80
2023-04-02T12:29:19.079Z,19.99
2023-04-02T12:31:47.978Z,20.21
2023-04-02T12:34:16.676Z,20.57
2023-04-02T12:36:55.196Z,20.10
2023-04-02T12:39:23.227Z,19.92
2023-04-02T12:41:51.490Z,19.73
2023-04-02T12:44:24.337Z,19.64
2023-04-02T12:46:52.385Z,19.52
2023-04-02T12:49:28.840Z,19.45
2023-04-02T12:51:56.692Z,19.35
2023-04-02T12:54:24.099Z,19.60
2023-04-02T12:56:51.495Z,20.08
2023-04-02T12:59:29.310Z,20.51
2023-04-02T13:01:57.495Z,20.84
2023-04-02T13:04:24.514Z,21.01
2023-04-02T13:06:54.980Z,21.10
2023-04-02T13:09:34.782Z,21.07
2023-04-02T13:12:03.060Z,21.11
2023-04-02T13:14:31.479Z,21.16
2023-04-02T13:16:58.545Z,21.01
2023-04-02T13:19:28.554Z,21.02
2023-04-02T13:21:57.142Z,21.11
2023-04-02T13:24:25.683Z,21.30
2023-04-02T13:26:56.486Z,21.44
2023-04-02T13:29:26.428Z,21.42
2023-04-02T13:31:57.352Z,21.30
2023-04-02T13:34:24.703Z,21.07
2023-04-02T13:36:51.998Z,20.67
2023-04-02T13:39:20.607Z,20.71
2023-04-02T13:41:49.251Z,20.71
2023-04-02T13:44:22.871Z,20.41
2023-04-02T13:46:50.550Z,20.33
2023-04-02T13:49:19.467Z,20.26
2023-04-02T13:51:48.037Z,20.17
2023-04-02T13:54:22.421Z,20.01
2023-04-02T13:56:49.524Z,19.79
2023-04-02T13:59:16.705Z,19.79
2023-04-02T14:01:44.977Z,19.94
2023-04-02T14:04:16.374Z,20.06
2023-04-02T14:07:08.445Z,20.41
2023-04-02T14:09:42.417Z,20.44
2023-04-02T14:12:17.267Z,20.28
2023-04-02T14:15:12.550Z,20.47
2023-04-02T14:17:49.851Z,20.39
2023-04-02T14:20:25.976Z,20.17
2023-04-02T14:23:07.176Z,20.05
2023-04-02T14:25:39.137Z,19.82
2023-04-02T14:28:10.670Z,19.57
2023-04-02T14:30:45.492Z,19.43
2023-04-02T14:33:20.976Z,19.24
2023-04-02T14:35:52.470Z,18.99
2023-04-02T14:38:24.989Z,18.82
2023-04-02T14:40:56.159Z,18.61
2023-04-02T14:43:24.942Z,18.40
2023-04-02T14:45:58.256Z,18.23
2023-04-02T14:48:37.785Z,18.11
2023-04-02T14:51:07.538Z,17.97
2023-04-02T14:53:47.444Z,17.73
2023-04-02T14:56:15.834Z,17.56
2023-04-02T14:58:43.906Z,17.53
2023-04-02T15:01:13.979Z,17.39
2023-04-02T15:03:44.697Z,17.18
2023-04-02T15:06:15.856Z,17.15
2023-04-02T15:08:52.367Z,17.10
2023-04-02T15:11:29.635Z,17.06
2023-04-02T15:14:00.457Z,17.08
2023-04-02T15:16:27.729Z,17.02
2023-04-02T15:18:56.794Z,16.87
2023-04-02T15:21:49.833Z,16.86
2023-04-02T15:24:31.077Z,16.78
2023-04-02T15:27:09.324Z,16.66
2023-04-02T15:29:42.100Z,16.53
2023-04-02T15:32:23.865Z,16.48
2023-04-02T15:34:54.710Z,16.46
2023-04-02T15:37:23.992Z,16.43
2023-04-02T15:40:19.858Z,16.36
2023-04-02T15:42:53.366Z,16.52
2023-04-02T15:45:29.048Z,16.58
2023-04-02T15:48:18.469Z,16.53
2023-04-02T15:51:08.557Z,16.65
2023-04-02T15:53:43.536Z,16.65
2023-04-02T15:56:36.110Z,16.53
2023-04-02T15:59:19.930Z,16.37
2023-04-02T16:01:54.468Z,16.15
2023-04-02T16:04:33.272Z,16.02
2023-04-02T16:07:20.482Z,15.78
2023-04-02T16:09:54.407Z,15.64
2023-04-02T16:12:26.192Z,15.48
2023-04-02T16:14:55.956Z,15.41
2023-04-02T16:17:28.460Z,15.21
2023-04-02T16:19:58.399Z,15.02
2023-04-02T16:22:29.085Z,14.72
2023-04-02T16:25:01.071Z,14.58
2023-04-02T16:27:32.540Z,14.48
2023-04-02T16:30:22.565Z,14.21
2023-04-02T16:33:00.043Z,14.08
2023-04-02T16:38:09.437Z,13.78
2023-04-02T16:40:40.688Z,13.64
2023-04-02T16:43:18.319Z,13.56
2023-04-02T16:45:50.992Z,13.47
2023-04-02T16:48:24.280Z,13.27
2023-04-02T16:50:58.162Z,13.13
2023-04-02T16:53:31.822Z,12.97
2023-04-02T16:56:12.034Z,12.86
2023-04-02T16:58:46.882Z,12.71
2023-04-02T17:01:15.798Z,12.67
2023-04-02T17:04:14.228Z,12.55
2023-04-02T17:06:43.419Z,12.37
2023-04-02T17:09:17.695Z,12.33
2023-04-02T17:11:49.176Z,12.19
2023-04-02T17:14:24.068Z,12.07
2023-04-02T17:16:53.296Z,12.00
2023-04-02T17:19:21.609Z,11.92
2023-04-02T17:21:52.363Z,11.83
2023-04-02T17:24:24.432Z,11.64
2023-04-02T17:26:53.915Z,11.52
2023-04-02T17:29:27.764Z,11.51
2023-04-02T17:32:00.006Z,11.43
2023-04-02T17:34:28.363Z,11.34
2023-04-02T17:37:03.328Z,11.25
2023-04-02T17:39:35.986Z,11.12
2023-04-02T17:42:10.472Z,11.06
2023-04-02T17:44:46.683Z,10.83
2023-04-02T17:47:20.007Z,10.74
2023-04-02T17:49:52.380Z,10.73
2023-04-02T17:52:22.287Z,10.70
2023-04-02T17:54:58.161Z,10.56
2023-04-02T17:57:36.029Z,10.46
2023-04-02T18:00:14.625Z,10.38
2023-04-02T18:02:59.932Z,10.30
2023-04-02T18:05:31.446Z,10.27
2023-04-02T18:08:05.319Z,10.18
2023-04-02T18:10:36.988Z,10.15
2023-04-02T18:13:07.828Z,10.04
2023-04-02T18:15:42.562Z,9.96
2023-04-02T18:18:19.413Z,9.92
2023-04-02T18:20:54.044Z,9.88
2023-04-02T18:23:36.432Z,9.85
2023-04-02T18:26:08.252Z,9.81
2023-04-02T18:28:43.490Z,9.71
2023-04-02T18:31:19.709Z,9.68
2023-04-02T18:34:05.435Z,9.70
2023-04-02T18:36:39.358Z,9.70
2023-04-02T18:39:13.617Z,9.70
2023-04-02T18:41:46.470Z,9.70
2023-04-02T18:44:31.565Z,9.73
2023-04-02T18:47:05.515Z,9.76
2023-04-02T18:49:36.928Z,9.76
2023-04-02T18:52:10.041Z,9.82
2023-04-02T18:54:39.669Z,9.83
2023-04-02T18:57:11.881Z,9.82
2023-04-02T18:59:42.921Z,9.82
2023-04-02T19:02:26.336Z,9.85
2023-04-02T19:05:00.438Z,9.95
2023-04-02T19:07:29.938Z,10.02
2023-04-02T19:10:00.232Z,10.05
2023-04-02T19:12:32.396Z,9.96
2023-04-02T19:14:59.730Z,9.97
2023-04-02T19:17:31.080Z,10.04
2023-04-02T19:20:07.365Z,10.04
2023-04-02T19:22:41.794Z,10.02
2023-04-02T19:25:26.488Z,10.02
2023-04-02T19:28:02.071Z,10.02
2023-04-02T19:30:50.658Z,10.00
2023-04-02T19:33:41.242Z,9.95
2023-04-02T19:36:26.633Z,10.00
2023-04-02T19:39:01.155Z,9.91
2023-04-02T19:41:32.155Z,9.72
2023-04-02T19:43:59.375Z,9.64
2023-04-02T19:46:26.923Z,9.64
2023-04-02T19:49:00.310Z,9.53
2023-04-02T19:51:27.345Z,9.48
2023-04-02T19:53:54.576Z,9.50
2023-04-02T19:56:22.890Z,9.52
2023-04-02T19:58:50.102Z,9.53
2023-04-02T20:01:17.433Z,9.51
2023-04-02T20:03:44.685Z,9.40
2023-04-02T20:06:14.499Z,9.28
2023-04-02T20:08:41.728Z,9.24
2023-04-02T20:11:08.898Z,9.20
2023-04-02T20:13:36.123Z,9.17
2023-04-02T20:16:04.750Z,9.13
2023-04-02T20:18:32.183Z,9.14
2023-04-02T20:20:59.460Z,8.93
2023-04-02T20:23:27.830Z,8.84
2023-04-02T20:25:57.217Z,8.72
2023-04-02T20:28:25.614Z,8.59
2023-04-02T20:30:53.596Z,8.55
2023-04-02T20:33:22.641Z,8.43
2023-04-02T20:35:50.772Z,8.38
2023-04-02T20:38:18.603Z,8.32
2023-04-02T20:40:52.853Z,8.28
2023-04-02T20:43:20.120Z,8.28
2023-04-02T20:45:53.993Z,8.22
2023-04-02T20:48:21.016Z,8.26
2023-04-02T20:50:49.179Z,8.26
2023-04-02T20:53:16.534Z,8.41
2023-04-02T20:55:43.865Z,8.39
2023-04-02T20:58:12.713Z,8.38
2023-04-02T21:00:39.715Z,8.36
2023-04-02T21:03:06.886Z,8.32
2023-04-02T21:05:34.111Z,8.34
2023-04-02T21:08:01.148Z,8.23
2023-04-02T21:10:28.130Z,8.17
2023-04-02T21:12:55.566Z,8.18
2023-04-02T21:15:27.216Z,8.12
2023-04-02T21:17:54.204Z,8.04
2023-04-02T21:20:21.736Z,8.07
2023-04-02T21:22:49.011Z,8.03
2023-04-02T21:25:16.193Z,7.95
2023-04-02T21:27:43.516Z,7.95
2023-04-02T21:30:12.078Z,7.93
2023-04-02T21:32:40.449Z,7.90
2023-04-02T21:35:09.174Z,7.83
2023-04-02T21:37:40.155Z,7.71
2023-04-02T21:40:09.106Z,7.66
2023-04-02T21:42:37.185Z,7.47
2023-04-02T21:45:04.857Z,7.26
2023-04-02T21:47:31.947Z,7.20
2023-04-02T21:50:00.362Z,7.20
2023-04-02T21:52:27.321Z,7.27
2023-04-02T21:54:54.241Z,7.17
2023-04-02T21:57:21.171Z,7.05
2023-04-02T21:59:48.317Z,6.85
2023-04-02T22:02:16.645Z,6.89
2023-04-02T22:04:43.572Z,6.89
2023-04-02T22:07:12.022Z,6.85
2023-04-02T22:09:39.043Z,6.89
2023-04-02T22:12:08.105Z,6.97
2023-04-02T22:14:35.310Z,6.97
2023-04-02T22:17:03.493Z,6.88
2023-04-02T22:19:30.677Z,6.90
2023-04-02T22:21:57.666Z,6.88
2023-04-02T22:24:26.133Z,6.86
2023-04-02T22:26:53.208Z,6.91
2023-04-02T22:29:20.473Z,6.89
2023-04-02T22:31:47.487Z,6.90
2023-04-02T22:34:14.608Z,6.78
2023-04-02T22:36:41.628Z,6.73
2023-04-02T22:39:12.034Z,6.65
2023-04-02T22:41:40.476Z,6.59
2023-04-02T22:44:07.439Z,6.52
2023-04-02T22:46:34.795Z,6.51
2023-04-02T22:49:02.074Z,6.51
2023-04-02T22:51:29.646Z,6.47
2023-04-02T22:53:57.319Z,6.53
2023-04-02T22:56:26.732Z,6.55
2023-04-02T22:58:55.090Z,6.59
2023-04-02T23:01:25.755Z,6.87
2023-04-02T23:03:53.217Z,6.97
2023-04-02T23:06:20.421Z,6.77
2023-04-02T23:08:47.669Z,6.71
2023-04-02T23:11:16.567Z,6.60
2023-04-02T23:13:44.160Z,6.53
2023-04-02T23:16:13.572Z,6.43
2023-04-02T23:18:42.168Z,6.29
2023-04-02T23:21:09.209Z,6.35
2023-04-02T23:23:36.890Z,6.29
2023-04-02T23:26:05.714Z,6.22
2023-04-02T23:28:32.951Z,6.28
2023-04-02T23:31:01.559Z,6.23
2023-04-02T23:33:29.853Z,6.24
2023-04-02T23:35:57.383Z,6.20
2023-04-02T23:38:25.054Z,6.04
2023-04-02T23:40:52.406Z,5.97
2023-04-02T23:43:19.504Z,5.95
2023-04-02T23:45:48.166Z,5.87
2023-04-02T23:48:15.012Z,5.81
2023-04-02T23:50:44.006Z,5.77
2023-04-02T23:53:11.944Z,5.78
2023-04-02T23:55:39.043Z,5.73
2023-04-02T23:58:06.351Z,5.73
